Aktualne dane pomiarowe

Uwaga, wersja testowa! Automatyczne pobieranie danych za pomocą narzędzi lub skryptów to umożliwiających jest zabronione.

Dane meteo z obszaru Polski uzyskane na podstawie depesz SYNOP pobieranych co godzinę z NWS. Najedź myszką na symbol przedstawiony w tabeli, aby uzyskać informacje co do jego znaczenia. Prosimy pamiętać, że to testowa wersja strony, która jeszcze nie jest ukończona. Stworzono również jest krótki FAQ dotyczący korzystania z tej podstrony Anomalie temperatury w chwili obecnej odniesione są do okresu referencyjnego 1951-2016. Okres ten będzie później zmieniony na 1981-2010. Kliknij ikonę aby pobrać plik CSV. Kliknij ikonę aby wygenerować mapę synoptyczną dla danego terminu.

Wybierz Datę:    

        

Wieluń (12455)

Dane terminowe dla wybranej stacji. Kliknij datę, aby otrzymać dane z tego terminu dla wszystkich stacji.

TemperaturaZachmurzenieWiatrCiśnienieOpadyPogoda
 Data t td wb tx tn tg rh  Nt Nl Cl Cm Ch ws wd g1 g2 wx mslp ppp ch 24h 12h t ww ww w1 w2  
2019-07-12 23:00:00 14.7 12.9 13.4--- 8911.0wx-wx1wx--11010.5 986.9 0.0---wx-w1w2--
2019-07-12 22:00:00 15.4 12.7 13.6--- 8418.0wx-wx1wx---1010.4 986.9 0.1---wx-w1--
2019-07-12 21:00:00 16.0 12.7 13.8--- 8128.0wx-wx0---01010.2 986.7 0.0---wx-w1--
2019-07-12 20:00:00 16.7 12.4 13.9--- 7640.0wxwxwxwx1wx--11010.3 986.9 0.5---------
2019-07-12 19:00:00 17.3 12.4 14.1--- 7335.0wxwxwxwx2wx--21010.2 986.8 0.3---wx---
2019-07-12 18:00:00 17.4 12.3 14.1 26.4 17.4- 7245.0wxwxwxwx2wx-1221010.1 986.7 0.5--12wx---
2019-07-12 17:00:00 18.5 11.1 13.9--- 6245.0wxwxwxwx4wx--41009.7 986.4 0.9---------
2019-07-12 16:00:00 18.7 11.3 14.1--- 6240.0wxwxwxwx6wx-1261009.7 986.5 0.7---------
2019-07-12 15:00:00 19.9 11.9 14.9--- 6023.0wxwxwxwxwx7wx121271009.3 986.2 0.1---------
2019-07-12 14:00:00 25.8 4.3 14.2--- 2545.0wxwxwxwxwx1wx--11008.2 985.5 -1.0---------
2019-07-12 13:00:00 26.2 4.6 14.5--- 2529.0wxwxwxwxwx2wx--21008.4 985.8 -1.0---------
2019-07-12 12:00:00 25.2 5.4 14.4--- 2830.0wxwxwxwxwx2wx--21008.8 986.1 -1.1- 0.06------
2019-07-12 11:00:00 23.6 5.5 13.7--- 3130.0wxwxwxwxwx2wx--21009.4 986.5 -0.8---------
2019-07-12 10:00:00 23.6 5.5 13.7--- 3130.0wxwxwxwxwx2wx--21009.7 986.8 -0.8---------
2019-07-12 09:00:00 23.2 5.6 13.6--- 3235.0wxwxwxwxwx1wx---1010.1 987.2 -0.5---------
2019-07-12 08:00:00 22.4 5.8 13.3--- 3430.0wxwxwxwxwx1wx--11010.3 987.3 -0.3---------
2019-07-12 07:00:00 21.3 7.9 13.7--- 4229.0wx-wxwx1wx--11010.7 987.6 -0.2---------
2019-07-12 06:00:00 17.4 8.3 12.1 20.6 12.9 8 5522.0wx-wxwx1wx--11011.1 987.7 0.0- 0.012----- 7.0
2019-07-12 05:00:00 15.5 8.2 11.2--- 6220.0wxwxwxwxwx1wx---1011.1 987.6 -0.2---------
2019-07-12 04:00:00 15.1 8.1 10.9--- 6340.0wxwxwxwx0---01011.4 987.8 -0.2---------
2019-07-12 03:00:00 15.6 6.8 10.6--- 5645.0wx-wx1wx--11011.2 987.7 -0.6---------
2019-07-12 02:00:00 15.4 6.7 10.4--- 5640.0wx-wx2wx--21011.3 987.8 -0.8---------
2019-07-12 01:00:00 15.6 6.6 10.5--- 5550.0wx-wx2wx--21011.5 988.0 -0.7---------
2019-07-12 00:00:00 15.2 7.0 10.5--- 5850.0wx-wx2wx--21011.9 988.3 -0.4- 0.06------
2019-07-11 23:00:00 15.1 6.9 10.4--- 5845.0wx-wx2wx--21012.2 988.6 0.0---------
2019-07-11 22:00:00 13.6 7.1 9.8--- 6545.0wx-wx2wx--21012.4 988.7 0.4---------
2019-07-11 21:00:00 12.9 6.9 9.3--- 6740.0wx-wx1wx--11012.5 988.7 0.6---------
2019-07-11 20:00:00 15.2 7.2 10.6--- 5940.0wx-wxwx2wx--21012.2 988.6 0.4---------
2019-07-11 19:00:00 16.7 6.8 11.1--- 5250.0wx-wxwx1wx--11011.7 988.3 0.0---------
2019-07-11 18:00:00 20.6 5.4 12.4 21.7 13.0- 3750.0wxwxwxwx2wx-821011.2 988.1 -0.3- 0.012------
2019-07-11 17:00:00 20.9 6.0 12.7--- 3840.0wxwxwxwx2wx--21011.3 988.2 -0.5---------
2019-07-11 16:00:00 21.1 5.4 12.6--- 3640.0wxwxwxwx3wx--31011.4 988.3 -0.6---------
2019-07-11 15:00:00 20.7 5.9 12.6--- 3845.0wxwxwx3wx-831011.5 988.4 -0.7---------
2019-07-11 14:00:00 21.1 6.6 13.1--- 3935.0wxwxwx3wx-831011.8 988.7 -0.6---------
2019-07-11 13:00:00 19.6 6.3 12.3--- 4235.0wxwxwx3wx-831012.1 988.9 -0.5---------
2019-07-11 12:00:00 19.5 6.9 12.5--- 4430.0wxwxwx4wx--41012.3 989.1 -0.5- 0.06------
2019-07-11 11:00:00 18.1 6.6 11.7--- 4735.0wxwxwx4wx--41012.7 989.3 -0.2---------
2019-07-11 10:00:00 17.4 6.3 11.2--- 4835.0wxwxwx4wx--41012.8 989.4 0.1---------
2019-07-11 09:00:00 16.9 8.1 11.8--- 5635.0wxwxwx3wx--31013.1 989.6 0.3---------
2019-07-11 08:00:00 15.9 8.4 11.4--- 6140.0wxwxwxwx3wx--31013.0 989.5 0.6---------
2019-07-11 07:00:00 14.4 10.0 11.6--- 7526.0wxwxwxwxwx3wx---1013.0 989.3 0.7---------
2019-07-11 06:00:00 13.1 11.7 12.1 17.0 10.4 9 9118.0wxwxwx2wx--21013.1 989.3 0.5 2.3 0.912wx-w1- 5.7
2019-07-11 05:00:00 12.2 11.4 11.6--- 9514.0wxwxwxwx2wx--21012.7 988.9 0.2---------
2019-07-11 04:00:00 11.5 10.7 10.9--- 9516.0wxwxwx2wx--21012.5 988.6 -1.3---------
2019-07-11 03:00:00 10.9 10.3 10.4--- 9610.0wxwxwx2wx--21012.7 988.8 -0.9---wx-w1--
2019-07-11 02:00:00 11.2 10.3 10.5--- 949.0wxwxwx1wx--11012.6 988.7 -0.7---wx---
2019-07-11 01:00:00 11.5 10.2 10.6--- 9212.0wxwxwx2wx--21013.8 989.9 0.2---wx---
2019-07-11 00:00:00 10.7 9.6 9.9--- 9313.0wx-wxwx3wx--31013.7 989.7 0.0- 0.06------
1.7 ms

 

Print Friendly, PDF & Email